Time;durP1;ratioP1;P1;durP2;ratioP2;P2;SDS_P1;SDS_P2;PMS_P1;PMS_P2;Temp;Humidity;BMP_temperature;BMP_pressure;BME280_temperature;BME280_humidity;BME280_pressure;Samples;Min_cycle;Max_cycle;Signal;HPM_P1;HPM_P2
2022/10/27 00:00:27;;;;;;;13.30;9.25;;;;;;;2.59;72.79;99946.91;5095817;28;20212;-66
2022/10/27 00:02:53;;;;;;;17.60;9.80;;;;;;;2.51;72.60;99931.47;5095433;28;20037;-66
2022/10/27 00:05:21;;;;;;;13.80;9.95;;;;;;;2.40;73.12;99923.63;5083229;28;20386;-67
2022/10/27 00:07:47;;;;;;;15.35;9.40;;;;;;;2.59;73.22;99945.22;5102321;28;20028;-65
2022/10/27 00:10:15;;;;;;;14.55;9.60;;;;;;;2.44;73.82;99944.97;5101420;28;20036;-65
2022/10/27 00:12:41;;;;;;;16.60;9.77;;;;;;;2.62;73.59;99943.53;5087451;28;20289;-65
2022/10/27 00:15:07;;;;;;;14.55;9.95;;;;;;;2.61;73.22;99942.69;5083088;28;20045;-65
2022/10/27 00:17:33;;;;;;;11.82;9.90;;;;;;;2.56;73.16;99945.16;5082954;28;20238;-66
2022/10/27 00:19:59;;;;;;;12.80;9.55;;;;;;;2.72;72.82;99942.81;5083131;28;20047;-66
2022/10/27 00:22:24;;;;;;;14.77;10.55;;;;;;;2.68;73.17;99944.50;5099562;28;20031;-67
2022/10/27 00:24:50;;;;;;;12.10;9.93;;;;;;;2.38;73.82;99943.19;5099068;28;20217;-67
2022/10/27 00:27:15;;;;;;;15.13;10.70;;;;;;;2.55;74.00;99943.47;5092138;28;20024;-67
2022/10/27 00:29:41;;;;;;;11.05;9.60;;;;;;;2.61;73.54;99939.25;5089240;28;20020;-67
2022/10/27 00:32:07;;;;;;;12.52;9.65;;;;;;;2.61;73.57;99949.47;5101993;28;20028;-66
2022/10/27 00:34:32;;;;;;;12.98;10.57;;;;;;;2.54;73.88;99946.00;5083183;28;20025;-66
2022/10/27 00:36:58;;;;;;;15.35;10.43;;;;;;;2.33;74.49;99942.25;5083264;28;20078;-66
2022/10/27 00:39:23;;;;;;;16.20;11.15;;;;;;;2.37;74.90;99933.78;5094742;28;20036;-67
2022/10/27 00:41:49;;;;;;;12.95;10.60;;;;;;;2.70;73.63;99941.97;5103120;28;20024;-66
2022/10/27 00:44:33;;;;;;;14.55;11.48;;;;;;;2.70;73.48;99929.19;5100798;28;20216;-66
2022/10/27 00:47:19;;;;;;;14.82;11.38;;;;;;;2.81;72.98;99942.09;5082915;28;20033;-65
2022/10/27 00:50:03;;;;;;;13.23;10.77;;;;;;;2.97;72.93;99938.06;5082514;28;20032;-66
2022/10/27 00:52:31;;;;;;;13.80;10.55;;;;;;;3.00;72.30;99940.69;5082878;28;20209;-66
2022/10/27 00:55:01;;;;;;;13.70;11.55;;;;;;;3.04;72.15;99952.66;5099468;28;20204;-65
2022/10/27 00:57:29;;;;;;;18.33;11.90;;;;;;;2.49;73.91;99928.00;5090465;28;20028;-66
2022/10/27 00:59:56;;;;;;;17.65;12.50;;;;;;;2.55;73.72;99938.34;5085275;28;20082;-67
2022/10/27 01:02:22;;;;;;;17.08;13.07;;;;;;;2.52;74.11;99937.41;5085905;28;20315;-65
2022/10/27 01:05:00;;;;;;;16.52;12.57;;;;;;;2.72;74.21;99941.16;5102863;28;20031;-65
2022/10/27 01:07:27;;;;;;;17.60;12.70;;;;;;;2.43;74.00;99920.25;5097517;28;20111;-65
2022/10/27 01:09:53;;;;;;;19.50;13.73;;;;;;;2.56;74.00;99939.19;5087103;28;20020;-66
2022/10/27 01:12:18;;;;;;;17.48;13.00;;;;;;;2.85;73.86;99937.06;5093648;28;20031;-66
2022/10/27 01:14:44;;;;;;;16.33;12.65;;;;;;;2.98;72.64;99943.22;5096652;28;20070;-66
2022/10/27 01:17:31;;;;;;;18.30;13.63;;;;;;;2.90;73.10;99940.53;5083574;28;20031;-66
2022/10/27 01:20:17;;;;;;;19.15;13.93;;;;;;;2.89;73.17;99941.41;5103096;28;20371;-67
2022/10/27 01:23:27;;;;;;;17.20;13.50;;;;;;;2.87;73.80;99940.50;5074987;28;20039;-66
2022/10/27 01:26:08;;;;;;;20.67;12.32;;;;;;;3.04;72.93;99930.50;5075671;28;20044;-67
2022/10/27 01:28:52;;;;;;;17.48;12.90;;;;;;;3.06;72.86;99931.34;5086044;28;20028;-66
2022/10/27 01:31:21;;;;;;;16.77;13.88;;;;;;;2.75;73.21;99905.38;5104979;28;20074;-66
2022/10/27 01:33:54;;;;;;;23.42;14.05;;;;;;;2.82;73.62;99908.91;5092079;28;20024;-67
2022/10/27 01:36:32;;;;;;;17.15;13.45;;;;;;;2.77;73.71;99920.75;5096912;28;20051;-66
2022/10/27 01:39:06;;;;;;;19.75;13.75;;;;;;;2.64;74.38;99922.28;5103535;28;20036;-66
2022/10/27 01:41:43;;;;;;;18.27;13.00;;;;;;;2.78;73.51;99912.25;5106437;28;20048;-65
2022/10/27 01:44:20;;;;;;;16.63;13.15;;;;;;;2.87;73.81;99919.19;5105232;28;20044;-65
2022/10/27 01:46:47;;;;;;;17.02;14.02;;;;;;;2.79;73.61;99901.16;5086074;28;20028;-65
2022/10/27 01:49:12;;;;;;;17.92;13.13;;;;;;;2.97;73.37;99915.06;5103765;28;20043;-65
2022/10/27 01:51:38;;;;;;;18.35;13.45;;;;;;;3.04;73.39;99912.59;5105874;28;20020;-65
2022/10/27 01:54:05;;;;;;;14.70;12.43;;;;;;;2.99;73.10;99909.09;5097440;28;20040;-65
2022/10/27 01:56:52;;;;;;;15.10;12.02;;;;;;;2.96;73.49;99918.44;5089572;28;20036;-66
2022/10/27 01:59:32;;;;;;;18.52;13.10;;;;;;;2.96;73.48;99921.00;5092050;28;20103;-65
2022/10/27 02:02:00;;;;;;;17.13;12.63;;;;;;;3.09;73.10;99921.19;5085625;28;20024;-65
2022/10/27 02:04:33;;;;;;;16.15;11.48;;;;;;;3.15;72.97;99919.53;5105320;28;20024;-66
2022/10/27 02:07:17;;;;;;;13.40;12.00;;;;;;;3.14;72.38;99918.69;5102018;28;20028;-66
2022/10/27 02:10:00;;;;;;;13.00;10.85;;;;;;;2.84;72.96;99922.56;5091732;28;20100;-65
2022/10/27 02:12:30;;;;;;;12.60;10.20;;;;;;;2.89;73.53;99894.47;5084297;28;20205;-67
2022/10/27 02:14:59;;;;;;;12.07;10.32;;;;;;;3.18;72.89;99919.56;5092213;28;20028;-67
2022/10/27 02:17:31;;;;;;;14.93;10.00;;;;;;;3.14;72.40;99902.47;5105551;28;20220;-66
2022/10/27 02:20:00;;;;;;;14.73;10.27;;;;;;;3.14;72.30;99902.47;5105424;28;20313;-65
2022/10/27 02:22:28;;;;;;;12.98;9.70;;;;;;;3.11;72.65;99934.00;5089251;28;20040;-66
2022/10/27 02:24:54;;;;;;;11.10;9.48;;;;;;;3.02;72.25;99921.06;5100108;28;20035;-67
2022/10/27 02:27:46;;;;;;;10.15;9.02;;;;;;;2.91;73.07;99896.22;5095096;28;20056;-66
2022/10/27 02:30:12;;;;;;;13.00;10.07;;;;;;;2.89;73.20;99917.50;5094204;28;20024;-66
2022/10/27 02:32:38;;;;;;;12.25;8.68;;;;;;;2.70;73.62;99906.16;5105026;28;20055;-66
2022/10/27 02:35:07;;;;;;;13.35;9.60;;;;;;;2.79;73.66;99913.94;5104020;28;20020;-65
2022/10/27 02:37:41;;;;;;;10.25;9.13;;;;;;;2.63;74.38;99917.16;5104815;28;20055;-66
2022/10/27 02:40:07;;;;;;;9.93;8.32;;;;;;;2.64;74.17;99913.75;5088167;28;20378;-65
2022/10/27 02:42:33;;;;;;;13.85;9.13;;;;;;;2.73;73.79;99911.31;5097064;28;20024;-67
2022/10/27 02:44:58;;;;;;;10.13;8.90;;;;;;;2.69;74.14;99919.78;5097775;28;20133;-65
2022/10/27 02:47:24;;;;;;;15.02;9.00;;;;;;;2.81;73.73;99911.41;5084692;28;20028;-65
2022/10/27 02:49:50;;;;;;;10.20;8.35;;;;;;;2.81;73.70;99909.72;5084557;28;20017;-65
2022/10/27 02:52:15;;;;;;;10.48;8.32;;;;;;;2.86;73.40;99920.00;5098574;28;20092;-65
2022/10/27 02:54:42;;;;;;;13.88;9.00;;;;;;;2.85;73.71;99916.59;5097452;28;20023;-66
2022/10/27 02:57:08;;;;;;;10.75;9.07;;;;;;;2.71;73.93;99910.44;5096108;28;20196;-67
2022/10/27 02:59:33;;;;;;;10.90;9.00;;;;;;;2.56;74.39;99916.19;5086079;28;20028;-67
2022/10/27 03:01:59;;;;;;;10.70;8.52;;;;;;;2.86;74.00;99920.88;5084082;28;20175;-67
2022/10/27 03:04:25;;;;;;;13.05;8.88;;;;;;;2.84;74.00;99914.88;5084226;28;20197;-67
2022/10/27 03:06:50;;;;;;;11.60;8.32;;;;;;;2.93;73.75;99914.16;5098356;28;20113;-67
2022/10/27 03:09:16;;;;;;;13.23;8.32;;;;;;;3.01;73.89;99911.69;5098089;28;20028;-67
2022/10/27 03:11:41;;;;;;;11.35;8.93;;;;;;;2.93;73.94;99911.59;5099685;28;20028;-66
2022/10/27 03:14:07;;;;;;;11.52;8.65;;;;;;;2.91;74.20;99915.84;5084166;28;20236;-65
2022/10/27 03:16:33;;;;;;;13.90;8.32;;;;;;;3.00;73.84;99907.41;5104557;28;20046;-65
2022/10/27 03:18:58;;;;;;;10.77;8.77;;;;;;;3.01;73.30;99904.88;5088918;28;20032;-66
2022/10/27 03:21:24;;;;;;;12.15;8.48;;;;;;;3.14;73.04;99905.03;5089640;28;20028;-66
2022/10/27 03:23:49;;;;;;;13.57;8.60;;;;;;;3.00;73.43;99904.84;5098433;28;20024;-65
2022/10/27 03:26:15;;;;;;;10.25;8.02;;;;;;;3.16;73.01;99904.19;5083741;28;20028;-66
2022/10/27 03:28:41;;;;;;;10.75;8.73;;;;;;;2.94;74.13;99901.38;5083726;28;20024;-67
2022/10/27 03:31:06;;;;;;;10.98;8.60;;;;;;;3.00;74.16;99902.31;5099873;28;20024;-67
2022/10/27 03:33:32;;;;;;;11.15;8.00;;;;;;;3.14;73.64;99907.59;5103984;28;20212;-66
2022/10/27 03:35:58;;;;;;;13.45;9.25;;;;;;;2.90;74.16;99891.94;5096938;28;20352;-66
2022/10/27 03:38:24;;;;;;;10.77;8.50;;;;;;;3.14;73.12;99897.38;5085607;28;20036;-66
2022/10/27 03:40:49;;;;;;;13.73;7.97;;;;;;;3.23;73.27;99902.56;5103834;28;20047;-66
2022/10/27 03:43:15;;;;;;;13.95;8.77;;;;;;;3.19;73.46;99901.69;5086394;28;20038;-66
2022/10/27 03:45:41;;;;;;;10.75;8.35;;;;;;;3.16;73.08;99908.47;5095671;28;20019;-66
2022/10/27 03:48:10;;;;;;;10.25;7.70;;;;;;;3.23;72.52;99905.13;5095884;28;20285;-67
2022/10/27 03:50:36;;;;;;;9.05;7.60;;;;;;;3.38;72.82;99925.78;5086738;28;20045;-67
2022/10/27 03:53:02;;;;;;;12.30;8.00;;;;;;;3.41;73.25;99922.41;5103723;28;20295;-66
2022/10/27 03:55:29;;;;;;;13.15;8.15;;;;;;;3.35;72.89;99918.09;5084457;28;20097;-65
2022/10/27 03:57:55;;;;;;;10.52;7.47;;;;;;;3.40;72.83;99929.22;5082500;28;20021;-66
2022/10/27 04:00:21;;;;;;;9.57;7.18;;;;;;;3.50;73.17;99919.09;5084160;28;20032;-66
2022/10/27 04:02:47;;;;;;;9.52;7.55;;;;;;;3.55;72.11;99926.00;5088247;28;20332;-66
2022/10/27 04:05:13;;;;;;;12.45;8.45;;;;;;;3.60;72.29;99926.03;5103484;28;20129;-66
2022/10/27 04:07:39;;;;;;;9.73;7.20;;;;;;;3.41;72.18;99928.38;5101549;28;20042;-66
2022/10/27 04:10:06;;;;;;;10.70;7.78;;;;;;;3.15;72.75;99928.09;5087617;28;20083;-65
2022/10/27 04:12:32;;;;;;;13.90;8.82;;;;;;;3.36;72.84;99921.50;5094258;28;20039;-65
2022/10/27 04:14:57;;;;;;;10.50;7.57;;;;;;;3.30;73.45;99929.13;5096885;28;20095;-65
2022/10/27 04:17:23;;;;;;;11.98;6.82;;;;;;;3.19;73.46;99922.16;5084417;28;20040;-65
2022/10/27 04:19:49;;;;;;;10.10;7.75;;;;;;;3.19;73.88;99931.53;5103435;28;20052;-64
2022/10/27 04:22:14;;;;;;;10.52;7.57;;;;;;;3.28;73.45;99931.66;5087729;28;20040;-65
2022/10/27 04:24:40;;;;;;;8.93;7.50;;;;;;;3.11;73.94;99931.44;5091140;28;20262;-65
2022/10/27 04:27:06;;;;;;;8.95;7.13;;;;;;;3.19;74.11;99934.09;5082983;28;20036;-65
2022/10/27 04:29:32;;;;;;;9.88;7.45;;;;;;;3.13;74.10;99939.97;5085588;28;20328;-65
2022/10/27 04:31:58;;;;;;;11.45;7.57;;;;;;;3.16;73.87;99932.34;5102282;28;20032;-65
2022/10/27 04:34:23;;;;;;;11.05;7.43;;;;;;;3.23;73.76;99935.84;5085161;28;20036;-65
2022/10/27 04:36:49;;;;;;;13.25;7.72;;;;;;;3.27;74.44;99943.56;5096143;28;20047;-65
2022/10/27 04:39:14;;;;;;;12.10;8.05;;;;;;;3.37;73.98;99941.13;5094583;28;20040;-66
2022/10/27 04:41:41;;;;;;;9.18;6.88;;;;;;;3.20;74.16;99936.66;5085135;28;20031;-66
2022/10/27 04:44:07;;;;;;;9.55;7.47;;;;;;;2.88;75.00;99906.41;5102758;28;20313;-66
2022/10/27 04:46:33;;;;;;;11.38;8.13;;;;;;;3.04;74.74;99939.88;5083439;28;20020;-66
2022/10/27 04:48:58;;;;;;;10.93;7.63;;;;;;;3.28;74.74;99952.97;5086553;28;20063;-66
2022/10/27 04:51:24;;;;;;;9.45;7.63;;;;;;;3.26;74.21;99958.91;5082390;28;20643;-66
2022/10/27 04:53:50;;;;;;;12.00;8.18;;;;;;;3.20;74.55;99951.16;5087600;28;20016;-66
2022/10/27 04:56:16;;;;;;;10.02;7.88;;;;;;;3.09;75.65;99961.25;5102764;28;20327;-65
2022/10/27 04:58:41;;;;;;;10.32;8.00;;;;;;;3.18;75.09;99958.81;5086205;28;20036;-64
2022/10/27 05:01:09;;;;;;;10.52;8.30;;;;;;;3.23;74.83;99964.00;5086793;28;20028;-66
2022/10/27 05:03:35;;;;;;;9.82;7.90;;;;;;;3.26;75.25;99952.13;5097740;28;20212;-66
2022/10/27 05:06:01;;;;;;;14.27;8.02;;;;;;;3.32;75.25;99953.00;5106740;28;20020;-66
2022/10/27 05:08:26;;;;;;;10.10;7.50;;;;;;;3.40;74.89;99956.53;5104277;28;20038;-66
2022/10/27 05:10:52;;;;;;;9.32;7.78;;;;;;;3.28;75.08;99954.69;5086318;28;20024;-67
2022/10/27 05:13:17;;;;;;;12.45;8.18;;;;;;;3.35;75.22;99955.59;5103308;28;20636;-66
2022/10/27 05:15:43;;;;;;;10.88;7.75;;;;;;;3.35;74.91;99955.59;5093414;28;20024;-67
2022/10/27 05:18:09;;;;;;;12.32;8.27;;;;;;;3.26;74.94;99957.22;5093508;28;20036;-65
2022/10/27 05:20:34;;;;;;;9.32;7.15;;;;;;;3.30;75.34;99955.56;5103944;28;20069;-67
2022/10/27 05:23:00;;;;;;;11.18;8.13;;;;;;;3.28;75.35;99964.94;5093559;28;20216;-67
2022/10/27 05:25:25;;;;;;;9.43;7.90;;;;;;;3.37;75.01;99959.06;5086983;28;20032;-66
2022/10/27 05:27:51;;;;;;;10.35;7.20;;;;;;;3.47;75.24;99947.22;5097721;28;20035;-66
2022/10/27 05:30:17;;;;;;;12.48;7.28;;;;;;;3.57;74.63;99956.72;5103141;28;20039;-67
2022/10/27 05:32:42;;;;;;;9.63;7.28;;;;;;;3.67;74.61;99961.09;5095999;28;20028;-66
2022/10/27 05:35:09;;;;;;;11.25;7.70;;;;;;;3.68;74.33;99947.47;5105140;28;20095;-66
2022/10/27 05:37:34;;;;;;;9.93;7.80;;;;;;;3.69;74.64;99966.25;5089283;28;20043;-66
2022/10/27 05:40:00;;;;;;;14.23;8.98;;;;;;;3.65;74.85;99961.94;5102212;28;20040;-66
2022/10/27 05:42:27;;;;;;;14.77;8.68;;;;;;;3.64;75.00;99966.19;5100057;28;20027;-66
2022/10/27 05:44:52;;;;;;;13.88;8.52;;;;;;;3.63;74.63;99965.34;5103775;28;20020;-67
2022/10/27 05:47:18;;;;;;;11.65;8.80;;;;;;;3.72;74.88;99967.16;5102890;28;20388;-67
2022/10/27 05:49:44;;;;;;;13.35;8.20;;;;;;;3.61;75.18;99967.00;5085417;28;20055;-66
2022/10/27 05:52:09;;;;;;;12.50;8.38;;;;;;;3.31;75.53;99972.63;5100466;28;20327;-67
2022/10/27 05:54:35;;;;;;;14.40;8.05;;;;;;;3.56;76.12;99967.81;5094965;28;20029;-66
2022/10/27 05:57:00;;;;;;;10.52;8.05;;;;;;;3.43;75.57;99972.81;5101120;28;20459;-67
2022/10/27 05:59:26;;;;;;;11.88;8.15;;;;;;;3.57;75.68;99967.81;5104440;28;20048;-66
2022/10/27 06:01:51;;;;;;;12.18;7.97;;;;;;;3.80;75.30;99975.78;5085381;28;20039;-67
2022/10/27 06:04:17;;;;;;;12.10;8.18;;;;;;;3.69;75.04;99976.50;5101535;28;20028;-67
2022/10/27 06:06:43;;;;;;;10.77;8.20;;;;;;;3.69;74.76;99979.03;5103912;28;20020;-67
2022/10/27 06:09:08;;;;;;;9.30;7.10;;;;;;;3.81;74.26;99979.19;5104002;28;20330;-67
2022/10/27 06:11:34;;;;;;;10.68;8.70;;;;;;;3.68;75.23;99979.88;5103529;28;20079;-67
2022/10/27 06:13:59;;;;;;;11.82;7.47;;;;;;;3.76;75.16;99976.59;5085416;28;20032;-68
2022/10/27 06:16:25;;;;;;;11.43;8.32;;;;;;;3.59;75.65;99976.41;5084755;28;20370;-67
2022/10/27 06:18:52;;;;;;;10.52;8.38;;;;;;;3.71;75.19;99983.34;5097695;28;20032;-68
2022/10/27 06:21:18;;;;;;;13.73;8.60;;;;;;;3.70;75.84;99981.63;5097278;28;20056;-67
2022/10/27 06:23:47;;;;;;;13.45;8.15;;;;;;;3.42;75.67;99949.72;5095890;28;20108;-68
2022/10/27 06:26:12;;;;;;;12.60;8.60;;;;;;;3.57;76.26;99979.78;5085158;28;20336;-67
2022/10/27 06:28:38;;;;;;;13.02;8.43;;;;;;;3.49;76.28;99986.50;5084877;28;20036;-68
2022/10/27 06:31:04;;;;;;;12.80;8.75;;;;;;;3.72;76.39;99994.44;5097537;28;20365;-68
2022/10/27 06:33:29;;;;;;;13.63;8.52;;;;;;;3.56;76.69;99986.59;5105076;28;20028;-67
2022/10/27 06:35:55;;;;;;;10.30;8.60;;;;;;;3.60;76.21;99990.06;5100519;28;20119;-68
2022/10/27 06:38:20;;;;;;;12.27;8.65;;;;;;;3.76;76.49;99986.84;5084584;28;20048;-67
2022/10/27 06:40:46;;;;;;;11.10;9.27;;;;;;;3.65;76.93;99987.53;5084631;28;20020;-68
2022/10/27 06:43:12;;;;;;;12.13;8.50;;;;;;;3.61;77.04;99992.63;5099779;28;20034;-67
2022/10/27 06:45:39;;;;;;;14.77;8.90;;;;;;;3.71;77.08;99978.22;5094330;28;20037;-68
2022/10/27 06:48:07;;;;;;;14.82;9.48;;;;;;;3.84;76.01;99984.34;5090367;28;20020;-68
2022/10/27 06:50:33;;;;;;;13.40;9.02;;;;;;;4.03;75.77;100000.75;5103527;28;20350;-69
2022/10/27 06:53:02;;;;;;;10.85;7.80;;;;;;;4.09;76.38;100005.97;5084396;28;20028;-68
2022/10/27 06:55:29;;;;;;;14.73;9.27;;;;;;;3.90;76.18;99997.22;5101781;28;20354;-68
2022/10/27 06:57:54;;;;;;;10.95;9.18;;;;;;;3.93;76.42;100010.09;5094839;28;20024;-68
2022/10/27 07:00:20;;;;;;;16.95;9.00;;;;;;;3.88;76.24;100000.63;5102752;28;20082;-68
2022/10/27 07:02:46;;;;;;;13.57;9.93;;;;;;;4.06;75.89;100010.19;5101169;28;20206;-68
2022/10/27 07:05:12;;;;;;;15.77;9.30;;;;;;;4.02;75.87;100008.44;5083911;28;20250;-68
2022/10/27 07:07:37;;;;;;;15.73;8.52;;;;;;;4.06;76.00;100012.75;5102525;28;20044;-69
2022/10/27 07:10:05;;;;;;;11.88;8.43;;;;;;;4.16;76.59;100019.69;5104446;28;20039;-68
2022/10/27 07:12:31;;;;;;;13.70;9.15;;;;;;;4.17;76.44;100015.44;5095115;28;20028;-69
2022/10/27 07:14:57;;;;;;;16.05;8.60;;;;;;;4.26;75.59;99997.56;5088702;28;20035;-68
2022/10/27 07:17:22;;;;;;;9.95;7.88;;;;;;;4.43;74.92;100010.53;5103883;28;20051;-68
2022/10/27 07:19:48;;;;;;;13.52;8.50;;;;;;;4.59;74.58;100011.53;5082641;28;20095;-68
2022/10/27 07:22:13;;;;;;;12.40;9.07;;;;;;;4.52;74.40;100015.75;5096296;28;20165;-68
2022/10/27 07:24:39;;;;;;;11.20;8.75;;;;;;;4.31;75.00;100013.88;5093510;28;20098;-69
2022/10/27 07:27:04;;;;;;;12.38;8.75;;;;;;;4.32;75.68;100021.56;5098522;28;20166;-69
2022/10/27 07:29:30;;;;;;;9.25;7.90;;;;;;;4.53;74.58;100017.47;5084062;28;20036;-68
2022/10/27 07:31:57;;;;;;;14.02;8.48;;;;;;;4.54;74.37;100021.75;5103867;28;20032;-69
2022/10/27 07:34:22;;;;;;;18.15;8.55;;;;;;;4.54;74.19;100021.75;5102679;28;20108;-69
2022/10/27 07:36:48;;;;;;;11.02;8.40;;;;;;;4.62;73.90;100022.69;5103337;28;20224;-69
2022/10/27 07:39:14;;;;;;;11.15;8.80;;;;;;;4.66;74.32;100026.16;5096706;28;20032;-69
2022/10/27 07:41:39;;;;;;;12.55;8.95;;;;;;;4.74;74.53;100028.75;5083695;28;20070;-69
2022/10/27 07:44:05;;;;;;;13.73;8.27;;;;;;;4.87;73.33;100027.16;5083486;28;20020;-69
2022/10/27 07:46:31;;;;;;;15.75;10.07;;;;;;;4.72;73.54;100022.75;5101040;28;20020;-68
2022/10/27 07:48:56;;;;;;;11.50;8.05;;;;;;;4.89;73.15;100023.75;5091376;28;20020;-70
2022/10/27 07:51:22;;;;;;;11.90;8.82;;;;;;;4.99;73.05;100022.97;5090673;28;20347;-69
2022/10/27 07:53:49;;;;;;;12.98;9.25;;;;;;;5.12;72.92;100018.75;5100708;28;20039;-69
2022/10/27 07:56:16;;;;;;;11.43;8.05;;;;;;;5.08;71.91;100003.34;5091498;28;20103;-69
2022/10/27 07:58:42;;;;;;;12.05;7.57;;;;;;;5.25;72.26;100018.84;5102411;28;20027;-70
2022/10/27 08:01:08;;;;;;;13.50;8.77;;;;;;;5.21;72.40;100017.09;5102449;28;20028;-69
2022/10/27 08:03:33;;;;;;;10.57;7.75;;;;;;;5.28;72.51;100021.41;5094329;28;20190;-69
2022/10/27 08:06:02;;;;;;;16.63;8.45;;;;;;;4.95;73.18;100013.50;5090161;28;20304;-69
2022/10/27 08:08:29;;;;;;;10.25;8.40;;;;;;;4.93;73.15;100019.47;5103408;28;20370;-70
2022/10/27 08:10:54;;;;;;;11.50;9.30;;;;;;;4.80;73.69;100010.84;5103777;28;20217;-69
2022/10/27 08:13:20;;;;;;;13.63;8.43;;;;;;;4.97;73.75;100016.97;5087711;28;20036;-68
2022/10/27 08:15:46;;;;;;;13.75;8.50;;;;;;;5.18;73.10;100023.06;5093822;28;20020;-68
2022/10/27 08:18:12;;;;;;;9.27;7.35;;;;;;;5.33;72.91;100019.72;5097573;28;20032;-69
2022/10/27 08:20:43;;;;;;;10.30;7.93;;;;;;;5.39;72.36;100013.75;5083247;28;20047;-68
2022/10/27 08:23:15;;;;;;;12.53;7.77;;;;;;;5.47;72.89;99999.25;5092263;28;20087;-69
2022/10/27 08:25:41;;;;;;;11.05;7.80;;;;;;;5.76;72.23;100008.78;5085321;28;20437;-69
2022/10/27 08:28:09;;;;;;;12.82;10.07;;;;;;;5.80;71.67;100018.22;5082973;28;20213;-68
2022/10/27 08:30:35;;;;;;;11.40;8.02;;;;;;;6.07;71.08;100020.06;5088776;28;20026;-69
2022/10/27 08:33:03;;;;;;;12.27;9.18;;;;;;;6.16;70.78;100017.50;5105940;28;20032;-68
2022/10/27 08:35:32;;;;;;;9.48;7.57;;;;;;;6.25;70.28;100014.09;5107317;28;20036;-69
2022/10/27 08:38:12;;;;;;;13.70;8.85;;;;;;;6.47;68.95;100025.28;5086264;28;20213;-69
2022/10/27 08:41:01;;;;;;;11.75;9.30;;;;;;;6.05;69.26;100003.75;5103943;28;20081;-69
2022/10/27 08:43:58;;;;;;;12.93;9.93;;;;;;;6.07;69.59;100002.06;5090796;28;20036;-69
2022/10/27 08:46:50;;;;;;;15.65;9.45;;;;;;;6.30;69.02;99999.53;5103646;28;20016;-69
2022/10/27 08:49:28;;;;;;;18.77;9.50;;;;;;;6.50;69.36;100021.81;5092381;28;20035;-69
2022/10/27 08:52:01;;;;;;;14.82;8.93;;;;;;;6.41;69.25;100006.38;5086867;28;20046;-68
2022/10/27 08:54:27;;;;;;;11.20;7.25;;;;;;;6.49;69.45;100023.53;5094506;28;20023;-68
2022/10/27 08:56:57;;;;;;;12.02;7.20;;;;;;;6.38;69.96;100002.97;5104193;28;20320;-68
2022/10/27 08:59:24;;;;;;;20.15;12.30;;;;;;;6.59;69.57;100013.25;5086011;28;20044;-69
2022/10/27 09:02:14;;;;;;;20.58;8.70;;;;;;;6.24;69.86;100027.78;5106226;28;20034;-68
2022/10/27 09:05:14;;;;;;;12.90;8.55;;;;;;;6.49;69.33;100028.69;5089033;28;20094;-68
2022/10/27 09:08:07;;;;;;;14.73;8.48;;;;;;;6.36;69.61;100022.66;5108057;28;20024;-69
2022/10/27 09:10:58;;;;;;;14.43;7.93;;;;;;;6.43;70.49;100023.53;5088913;28;20108;-68
2022/10/27 09:13:48;;;;;;;13.38;8.20;;;;;;;6.42;70.50;100026.13;5090894;28;20130;-68
2022/10/27 09:16:22;;;;;;;12.95;9.57;;;;;;;6.59;70.17;100032.13;5085109;28;20036;-69
2022/10/27 09:18:54;;;;;;;14.38;7.93;;;;;;;6.66;69.77;100018.41;5096849;28;20095;-69
2022/10/27 09:21:21;;;;;;;9.60;7.65;;;;;;;6.61;69.51;100004.66;5099747;28;20085;-69
2022/10/27 09:23:58;;;;;;;13.75;8.23;;;;;;;6.46;69.88;100013.25;5098799;28;20104;-68
2022/10/27 09:26:31;;;;;;;11.25;7.38;;;;;;;6.35;70.47;100020.09;5086211;28;20016;-69
2022/10/27 09:29:01;;;;;;;8.25;6.13;;;;;;;6.31;71.41;100021.78;5106320;28;20028;-69
2022/10/27 09:31:27;;;;;;;10.75;7.28;;;;;;;6.15;71.85;100018.34;5090373;28;20382;-69
2022/10/27 09:34:09;;;;;;;13.70;7.10;;;;;;;6.21;71.90;100008.09;5097398;28;20043;-68
2022/10/27 09:36:35;;;;;;;11.10;7.82;;;;;;;6.36;70.83;100006.41;5097866;28;20309;-69
2022/10/27 09:39:01;;;;;;;11.75;7.57;;;;;;;6.39;71.04;100002.09;5095419;28;20035;-69
2022/10/27 09:41:26;;;;;;;12.45;8.85;;;;;;;6.21;71.85;100015.81;5106097;28;20248;-69
2022/10/27 09:43:54;;;;;;;9.50;7.47;;;;;;;6.05;72.21;100021.75;5086548;28;20028;-69
2022/10/27 09:46:26;;;;;;;10.25;7.68;;;;;;;6.25;72.21;100026.09;5100868;28;20024;-69
2022/10/27 09:48:56;;;;;;;12.60;7.88;;;;;;;6.20;72.38;100023.53;5095463;28;20067;-69
2022/10/27 09:51:26;;;;;;;12.82;9.27;;;;;;;6.05;72.60;100014.03;5085406;28;20052;-69
2022/10/27 09:53:52;;;;;;;11.52;8.65;;;;;;;5.94;72.86;100024.25;5088138;28;20038;-68
2022/10/27 09:56:27;;;;;;;16.95;11.60;;;;;;;6.10;73.07;100029.47;5106059;28;20099;-69
2022/10/27 09:58:57;;;;;;;12.27;8.90;;;;;;;6.03;72.68;100029.47;5086635;28;20099;-70
2022/10/27 10:01:27;;;;;;;14.98;9.80;;;;;;;5.67;73.65;100013.06;5100251;28;20320;-69
2022/10/27 10:04:06;;;;;;;14.05;10.07;;;;;;;5.93;72.91;100025.13;5095380;28;20093;-68
2022/10/27 10:06:36;;;;;;;14.45;9.90;;;;;;;5.88;73.58;100011.41;5094768;28;20339;-70
2022/10/27 10:09:38;;;;;;;11.77;9.48;;;;;;;6.37;72.21;100034.69;5098371;28;20256;-69
2022/10/27 10:12:19;;;;;;;12.82;9.70;;;;;;;6.53;71.67;100037.28;5057296;28;20069;-69
2022/10/27 10:14:45;;;;;;;16.58;10.63;;;;;;;6.44;71.69;100026.97;5084121;28;20040;-69
2022/10/27 10:17:26;;;;;;;16.65;11.30;;;;;;;6.24;72.08;100048.38;5084969;28;20024;-69
2022/10/27 10:19:53;;;;;;;17.75;11.65;;;;;;;5.95;73.07;100043.13;5103969;28;20055;-69
2022/10/27 10:22:22;;;;;;;16.75;11.20;;;;;;;6.04;72.75;100045.75;5092921;28;20052;-69
2022/10/27 10:24:48;;;;;;;21.48;11.80;;;;;;;6.28;72.22;100042.38;5095591;28;20037;-70
2022/10/27 10:27:28;;;;;;;17.10;12.25;;;;;;;5.99;71.75;100025.16;5084914;28;20245;-69
2022/10/27 10:30:00;;;;;;;15.10;11.10;;;;;;;6.49;71.99;100045.84;5086943;28;20032;-70
2022/10/27 10:32:28;;;;;;;18.08;12.68;;;;;;;5.98;72.79;100040.59;5084944;28;20264;-68
2022/10/27 10:34:55;;;;;;;15.75;11.80;;;;;;;6.38;72.33;100048.41;5104104;28;20093;-69
2022/10/27 10:37:28;;;;;;;18.35;12.48;;;;;;;6.33;72.55;100040.69;5090649;28;20044;-69
2022/10/27 10:39:54;;;;;;;19.48;12.48;;;;;;;6.51;71.96;100055.28;5095560;28;20055;-70
2022/10/27 10:42:20;;;;;;;19.15;12.90;;;;;;;6.28;72.31;100059.53;5099004;28;20028;-70
2022/10/27 10:44:46;;;;;;;16.88;12.43;;;;;;;6.49;71.80;100059.56;5085772;28;20282;-69
2022/10/27 10:47:28;;;;;;;15.80;12.00;;;;;;;6.54;71.69;100060.44;5111388;28;20339;-70
2022/10/27 10:49:56;;;;;;;;;;;;;;;6.32;72.03;100056.09;5098131;28;20063;-70
2022/10/27 10:52:29;;;;;;;18.05;12.98;;;;;;;6.14;72.30;100042.38;5098530;28;19910;-69
2022/10/27 10:54:55;;;;;;;18.08;13.27;;;;;;;6.19;72.44;100050.94;5093197;28;20031;-70
2022/10/27 10:57:36;;;;;;;18.67;14.10;;;;;;;6.10;72.53;100043.22;5089884;28;20269;-69
2022/10/27 11:00:05;;;;;;;21.45;14.50;;;;;;;6.51;72.07;100056.97;5101777;28;20040;-70
2022/10/27 11:02:33;;;;;;;20.20;13.48;;;;;;;6.73;71.31;100060.44;5104539;28;20035;-69
2022/10/27 11:05:22;;;;;;;22.48;15.77;;;;;;;6.78;71.03;100057.88;5106384;28;20060;-69
2022/10/27 11:07:49;;;;;;;17.92;13.68;;;;;;;6.93;70.53;100057.00;5105155;28;20327;-68
2022/10/27 11:10:20;;;;;;;20.88;14.63;;;;;;;7.00;70.04;100049.28;5104206;28;20306;-69
2022/10/27 11:12:51;;;;;;;18.05;13.95;;;;;;;6.98;69.98;100039.84;5095038;28;20032;-70
2022/10/27 11:15:19;;;;;;;17.40;14.00;;;;;;;7.01;70.01;100039.81;5089165;28;20028;-68
2022/10/27 11:17:48;;;;;;;19.67;14.57;;;;;;;6.45;71.61;100038.97;5103534;28;20198;-69
2022/10/27 11:20:30;;;;;;;23.20;14.73;;;;;;;6.44;71.78;100047.53;5084124;28;20083;-69
2022/10/27 11:22:57;;;;;;;17.75;14.93;;;;;;;6.28;72.80;100060.38;5095515;28;20339;-69
2022/10/27 11:25:27;;;;;;;21.13;15.07;;;;;;;6.35;72.49;100045.81;5097907;28;20184;-69
2022/10/27 11:28:03;;;;;;;20.98;15.85;;;;;;;6.60;72.15;100059.59;5098696;28;20039;-69
2022/10/27 11:30:31;;;;;;;19.60;14.05;;;;;;;6.72;71.82;100058.72;5090399;28;20024;-69
2022/10/27 11:33:09;;;;;;;22.27;15.93;;;;;;;6.66;71.41;100062.16;5092067;28;20028;-69
2022/10/27 11:35:51;;;;;;;24.85;17.15;;;;;;;6.39;72.74;100060.41;5094812;28;20052;-69
2022/10/27 11:38:26;;;;;;;29.33;18.35;;;;;;;6.59;71.70;100067.31;5082208;28;20112;-69